createdAt,value
2023-04-30T00:01:00.620Z,12.70
2023-04-30T00:03:27.721Z,12.80
2023-04-30T00:05:54.906Z,12.70
2023-04-30T00:08:22.121Z,12.60
2023-04-30T00:10:49.278Z,12.30
2023-04-30T00:13:16.497Z,12.80
2023-04-30T00:15:43.601Z,12.90
2023-04-30T00:18:10.868Z,13.20
2023-04-30T00:20:37.923Z,12.70
2023-04-30T00:23:04.985Z,12.60
2023-04-30T00:25:32.060Z,12.70
2023-04-30T00:30:26.518Z,12.90
2023-04-30T00:32:53.637Z,13.40
2023-04-30T00:35:20.858Z,12.90
2023-04-30T00:37:47.874Z,11.80
2023-04-30T00:40:15.134Z,12.80
2023-04-30T00:42:42.191Z,12.80
2023-04-30T00:45:09.819Z,12.70
2023-04-30T00:47:37.095Z,12.70
2023-04-30T00:50:04.480Z,12.80
2023-04-30T00:52:31.762Z,13.00
2023-04-30T00:54:59.188Z,12.70
2023-04-30T00:57:27.350Z,13.30
2023-04-30T00:59:55.741Z,12.60
2023-04-30T01:02:23.745Z,13.00
2023-04-30T01:04:52.136Z,12.60
2023-04-30T01:07:19.369Z,12.60
2023-04-30T01:09:46.466Z,12.60
2023-04-30T01:12:29.879Z,12.60
2023-04-30T01:15:05.035Z,12.70
2023-04-30T01:17:56.477Z,12.70
2023-04-30T01:20:26.723Z,12.60
2023-04-30T01:23:32.895Z,12.60
2023-04-30T01:26:24.649Z,12.50
2023-04-30T01:28:54.663Z,12.60
2023-04-30T01:31:24.723Z,12.50
2023-04-30T01:33:51.803Z,12.60
2023-04-30T01:36:49.133Z,12.60
2023-04-30T01:40:15.220Z,12.50
2023-04-30T01:43:10.593Z,12.50
2023-04-30T01:46:04.965Z,12.50
2023-04-30T01:48:45.555Z,12.50
2023-04-30T01:51:21.950Z,11.20
2023-04-30T01:53:49.373Z,12.50
2023-04-30T01:56:32.690Z,12.50
2023-04-30T01:59:01.895Z,12.40
2023-04-30T02:01:32.075Z,12.40
2023-04-30T02:04:00.369Z,12.50
2023-04-30T02:06:29.666Z,12.50
2023-04-30T02:09:02.898Z,12.50
2023-04-30T02:11:30.522Z,12.40
2023-04-30T02:13:57.848Z,12.50
2023-04-30T02:16:25.137Z,12.40
2023-04-30T02:18:52.576Z,12.30
2023-04-30T02:21:19.915Z,12.40
2023-04-30T02:23:47.731Z,12.40
2023-04-30T02:26:14.809Z,12.40
2023-04-30T02:28:42.532Z,12.80
2023-04-30T02:31:10.678Z,13.20
2023-04-30T02:33:37.723Z,12.30
2023-04-30T02:38:32.592Z,12.40
2023-04-30T02:40:59.618Z,12.30
2023-04-30T02:43:26.622Z,12.50
2023-04-30T02:45:54.335Z,12.20
2023-04-30T02:48:22.736Z,12.20
2023-04-30T02:50:49.736Z,12.30
2023-04-30T02:53:16.871Z,12.20
2023-04-30T02:55:43.940Z,12.20
2023-04-30T02:58:11.011Z,12.30
2023-04-30T03:00:38.152Z,12.20
2023-04-30T03:03:05.384Z,12.20
2023-04-30T03:05:32.511Z,12.20
2023-04-30T03:07:59.468Z,12.20
2023-04-30T03:10:26.474Z,12.20
2023-04-30T03:12:54.230Z,12.30
2023-04-30T03:15:21.313Z,12.00
2023-04-30T03:17:48.469Z,12.00
2023-04-30T03:20:15.987Z,12.10
2023-04-30T03:22:43.154Z,12.10
2023-04-30T03:25:11.643Z,12.30
2023-04-30T03:27:38.811Z,12.10
2023-04-30T03:30:07.324Z,12.20
2023-04-30T03:32:34.451Z,12.10
2023-04-30T03:35:01.504Z,12.10
2023-04-30T03:37:29.166Z,12.00
2023-04-30T03:39:56.370Z,12.10
2023-04-30T03:42:23.860Z,12.10
2023-04-30T03:44:50.886Z,11.90
2023-04-30T03:47:18.064Z,12.00
2023-04-30T03:49:45.163Z,12.00
2023-04-30T03:52:12.200Z,11.90
2023-04-30T03:54:39.528Z,12.00
2023-04-30T03:57:07.979Z,11.90
2023-04-30T03:59:35.203Z,11.80
2023-04-30T04:02:02.548Z,11.90
2023-04-30T04:04:30.356Z,12.00
2023-04-30T04:06:57.487Z,12.00
2023-04-30T04:09:24.641Z,11.90
2023-04-30T04:11:51.995Z,12.00
2023-04-30T04:14:19.010Z,11.90
2023-04-30T04:16:46.938Z,12.10
2023-04-30T04:19:14.282Z,12.00
2023-04-30T04:21:41.562Z,11.90
2023-04-30T04:24:14.617Z,11.50
2023-04-30T04:26:42.778Z,11.90
2023-04-30T04:29:12.279Z,12.40
2023-04-30T04:31:42.257Z,11.90
2023-04-30T04:34:11.665Z,11.90
2023-04-30T04:39:07.109Z,12.00
2023-04-30T04:41:38.294Z,11.80
2023-04-30T04:44:06.470Z,11.90
2023-04-30T04:46:44.532Z,11.90
2023-04-30T04:49:12.733Z,12.30
2023-04-30T04:51:39.852Z,11.90
2023-04-30T04:54:07.469Z,12.60
2023-04-30T04:56:34.571Z,11.90
2023-04-30T04:59:01.733Z,11.90
2023-04-30T05:01:29.602Z,11.80
2023-04-30T05:03:56.895Z,11.90
2023-04-30T05:06:23.986Z,11.90
2023-04-30T05:08:51.068Z,12.50
2023-04-30T05:11:18.254Z,11.80
2023-04-30T05:13:48.907Z,11.90
2023-04-30T05:16:16.461Z,11.90
2023-04-30T05:18:43.683Z,11.80
2023-04-30T05:21:10.784Z,12.00
2023-04-30T05:26:05.567Z,11.90
2023-04-30T05:33:28.351Z,11.90
2023-04-30T05:35:55.588Z,11.90
2023-04-30T05:38:23.188Z,11.80
2023-04-30T05:40:50.216Z,11.80
2023-04-30T05:43:17.167Z,11.90
2023-04-30T05:45:44.307Z,11.60
2023-04-30T05:48:11.509Z,11.90
2023-04-30T05:50:38.571Z,11.80
2023-04-30T05:53:05.765Z,11.80
2023-04-30T05:55:33.153Z,11.70
2023-04-30T05:58:00.204Z,11.70
2023-04-30T06:00:27.217Z,11.80
2023-04-30T06:02:54.393Z,11.80
2023-04-30T06:05:21.765Z,11.70
2023-04-30T06:07:48.810Z,11.70
2023-04-30T06:10:15.970Z,11.70
2023-04-30T06:12:43.003Z,11.70
2023-04-30T06:15:10.432Z,11.70
2023-04-30T06:17:37.731Z,11.70
2023-04-30T06:20:07.209Z,11.80
2023-04-30T06:22:34.780Z,12.20
2023-04-30T06:25:03.600Z,11.90
2023-04-30T06:27:32.472Z,11.80
2023-04-30T06:30:01.081Z,11.70
2023-04-30T06:32:28.365Z,11.80
2023-04-30T06:34:56.087Z,11.80
2023-04-30T06:37:23.377Z,11.90
2023-04-30T06:39:51.614Z,11.90
2023-04-30T06:42:18.711Z,12.00
2023-04-30T06:47:14.439Z,11.90
2023-04-30T06:49:41.692Z,11.90
2023-04-30T06:52:11.147Z,12.20
2023-04-30T06:54:38.177Z,11.90
2023-04-30T07:02:00.215Z,11.90
2023-04-30T07:04:27.879Z,12.00
2023-04-30T07:06:54.872Z,11.90
2023-04-30T07:09:21.938Z,12.00
2023-04-30T07:11:49.239Z,12.00
2023-04-30T07:14:16.243Z,12.00
2023-04-30T07:16:43.423Z,12.00
2023-04-30T07:19:10.586Z,12.00
2023-04-30T07:21:37.654Z,12.10
2023-04-30T07:24:05.527Z,12.10
2023-04-30T07:26:32.538Z,12.10
2023-04-30T07:28:59.634Z,12.00
2023-04-30T07:31:27.062Z,12.20
2023-04-30T07:33:55.487Z,12.20
2023-04-30T07:36:23.142Z,12.20
2023-04-30T07:38:50.319Z,12.30
2023-04-30T07:41:17.332Z,12.20
2023-04-30T07:43:44.662Z,12.20
2023-04-30T07:46:12.111Z,12.30
2023-04-30T07:48:39.186Z,12.20
2023-04-30T07:51:06.268Z,12.60
2023-04-30T07:53:33.560Z,12.20
2023-04-30T07:56:02.189Z,12.40
2023-04-30T07:58:29.302Z,12.50
2023-04-30T08:00:56.497Z,12.40
2023-04-30T08:03:23.583Z,12.50
2023-04-30T08:08:19.199Z,12.00
2023-04-30T08:10:46.493Z,12.50
2023-04-30T08:13:13.573Z,12.70
2023-04-30T08:18:09.894Z,12.50
2023-04-30T08:20:38.549Z,12.40
2023-04-30T08:23:06.135Z,12.50
2023-04-30T08:25:33.207Z,11.80
2023-04-30T08:28:00.308Z,12.60
2023-04-30T08:30:27.644Z,12.60
2023-04-30T08:32:57.503Z,12.50
2023-04-30T08:35:26.331Z,12.50
2023-04-30T08:37:54.108Z,12.70
2023-04-30T08:40:23.504Z,12.70
2023-04-30T08:43:06.692Z,12.60
2023-04-30T08:45:35.222Z,11.90
2023-04-30T08:48:04.726Z,12.80
2023-04-30T08:53:01.043Z,13.00
2023-04-30T08:55:28.412Z,13.20
2023-04-30T08:57:55.542Z,12.90
2023-04-30T09:00:22.725Z,12.90
2023-04-30T09:02:50.604Z,13.10
2023-04-30T09:05:17.677Z,13.10
2023-04-30T09:10:19.925Z,13.20
2023-04-30T09:13:04.949Z,13.20
2023-04-30T09:18:17.702Z,13.20
2023-04-30T09:21:01.941Z,13.50
2023-04-30T09:23:30.427Z,13.40
2023-04-30T09:25:57.804Z,13.30
2023-04-30T09:28:26.675Z,13.40
2023-04-30T09:30:56.996Z,13.20
2023-04-30T09:33:24.167Z,13.60
2023-04-30T09:35:51.284Z,13.10
2023-04-30T09:38:30.686Z,13.70
2023-04-30T09:41:00.445Z,13.70
2023-04-30T09:43:31.619Z,13.50
2023-04-30T09:46:00.495Z,13.70
2023-04-30T09:48:28.669Z,13.60
2023-04-30T09:50:55.862Z,13.60
2023-04-30T09:55:52.570Z,13.70
2023-04-30T09:58:20.508Z,13.80
2023-04-30T10:00:49.633Z,13.70
2023-04-30T10:03:17.228Z,13.70
2023-04-30T10:05:47.603Z,13.70
2023-04-30T10:08:27.820Z,13.70
2023-04-30T10:11:03.951Z,13.70
2023-04-30T10:13:50.019Z,12.30
2023-04-30T10:16:46.143Z,13.90
2023-04-30T10:21:52.401Z,14.50
2023-04-30T10:24:24.630Z,13.70
2023-04-30T10:26:54.732Z,13.70
2023-04-30T10:29:25.951Z,13.70
2023-04-30T10:34:54.084Z,13.80
2023-04-30T10:37:29.633Z,13.70
2023-04-30T10:40:02.225Z,13.50
2023-04-30T10:42:33.708Z,13.90
2023-04-30T10:45:08.728Z,14.00
2023-04-30T10:47:37.845Z,14.00
2023-04-30T10:52:47.595Z,14.30
2023-04-30T10:55:26.110Z,14.10
2023-04-30T10:57:58.936Z,14.00
2023-04-30T11:00:30.818Z,14.10
2023-04-30T11:03:04.269Z,13.90
2023-04-30T11:05:41.791Z,14.10
2023-04-30T11:08:14.765Z,14.40
2023-04-30T11:11:06.192Z,14.50
2023-04-30T11:13:48.435Z,14.20
2023-04-30T11:16:20.353Z,14.10
2023-04-30T11:19:11.918Z,14.00
2023-04-30T11:22:06.297Z,14.00
2023-04-30T11:25:07.548Z,14.10
2023-04-30T11:27:47.985Z,14.50
2023-04-30T11:30:18.255Z,14.70
2023-04-30T11:32:49.942Z,13.80
2023-04-30T11:35:59.560Z,14.30
2023-04-30T11:39:05.921Z,14.40
2023-04-30T11:41:48.845Z,14.50
2023-04-30T11:44:33.060Z,14.60
2023-04-30T11:47:40.808Z,14.70
2023-04-30T11:50:47.049Z,14.90
2023-04-30T11:53:26.032Z,13.90
2023-04-30T11:56:00.540Z,15.10
2023-04-30T11:58:38.255Z,15.10
2023-04-30T12:01:15.282Z,15.00
2023-04-30T12:03:49.069Z,15.00
2023-04-30T12:06:30.145Z,15.20
2023-04-30T12:09:06.245Z,15.40
2023-04-30T12:11:38.545Z,15.10
2023-04-30T12:16:49.495Z,15.30
2023-04-30T12:19:18.873Z,15.00
2023-04-30T12:24:17.684Z,15.70
2023-04-30T12:26:45.832Z,15.50
2023-04-30T12:29:18.960Z,17.60
2023-04-30T12:31:49.792Z,15.60
2023-04-30T12:36:45.834Z,14.60
2023-04-30T12:39:18.165Z,15.70
2023-04-30T12:41:48.502Z,15.40
2023-04-30T12:44:27.746Z,15.80
2023-04-30T12:46:57.811Z,15.50
2023-04-30T12:49:27.491Z,15.50
2023-04-30T13:03:10.473Z,15.90
2023-04-30T13:08:06.498Z,15.60
2023-04-30T13:10:36.841Z,16.40
2023-04-30T13:13:03.932Z,16.40
2023-04-30T13:15:31.122Z,18.00
2023-04-30T13:21:25.020Z,15.20
2023-04-30T13:23:54.048Z,15.70
2023-04-30T13:26:23.484Z,15.60
2023-04-30T13:28:51.228Z,16.90
2023-04-30T13:33:46.115Z,14.90
2023-04-30T13:36:13.308Z,17.10
2023-04-30T13:38:40.809Z,16.00
2023-04-30T13:41:07.998Z,16.30
2023-04-30T13:43:35.134Z,16.50
2023-04-30T13:46:02.207Z,16.50
2023-04-30T13:48:29.350Z,17.00
2023-04-30T13:50:57.690Z,17.40
2023-04-30T13:53:25.039Z,17.40
2023-04-30T13:55:52.895Z,17.30
2023-04-30T13:58:20.134Z,16.80
2023-04-30T14:00:49.806Z,17.30
2023-04-30T14:03:20.221Z,16.90
2023-04-30T14:05:49.956Z,17.00
2023-04-30T14:08:17.068Z,16.70
2023-04-30T14:10:50.085Z,16.50
2023-04-30T14:13:20.124Z,16.50
2023-04-30T14:15:48.778Z,16.50
2023-04-30T14:18:16.262Z,16.50
2023-04-30T14:20:45.283Z,16.50
2023-04-30T14:23:12.732Z,16.50
2023-04-30T14:25:40.394Z,17.80
2023-04-30T14:28:07.771Z,16.80
2023-04-30T14:30:34.919Z,16.80
2023-04-30T14:33:02.024Z,16.60
2023-04-30T14:35:29.112Z,15.10
2023-04-30T14:37:56.398Z,16.30
2023-04-30T14:40:23.562Z,16.40
2023-04-30T14:42:50.808Z,16.30
2023-04-30T14:45:18.137Z,16.10
2023-04-30T14:47:45.252Z,16.40
2023-04-30T14:50:12.524Z,16.40
2023-04-30T14:55:08.250Z,16.70
2023-04-30T14:57:36.460Z,16.50
2023-04-30T15:00:04.748Z,17.40
2023-04-30T15:02:31.874Z,16.70
2023-04-30T15:04:58.934Z,16.60
2023-04-30T15:07:25.893Z,16.60
2023-04-30T15:09:53.142Z,17.60
2023-04-30T15:14:49.441Z,16.50
2023-04-30T15:17:16.485Z,16.50
2023-04-30T15:19:43.913Z,16.20
2023-04-30T15:22:11.013Z,16.50
2023-04-30T15:24:38.362Z,16.60
2023-04-30T15:27:05.344Z,15.50
2023-04-30T15:29:32.305Z,16.60
2023-04-30T15:31:59.842Z,16.50
2023-04-30T15:34:27.058Z,16.30
2023-04-30T15:36:54.362Z,16.40
2023-04-30T15:39:21.830Z,16.40
2023-04-30T15:41:48.922Z,16.40
2023-04-30T15:44:16.196Z,16.60
2023-04-30T15:46:43.305Z,16.10
2023-04-30T15:49:10.532Z,16.40
2023-04-30T15:51:38.499Z,16.30
2023-04-30T15:54:07.383Z,16.30
2023-04-30T15:56:35.797Z,16.10
2023-04-30T15:59:02.789Z,16.00
2023-04-30T16:01:29.846Z,16.40
2023-04-30T16:03:57.018Z,16.30
2023-04-30T16:06:24.656Z,16.20
2023-04-30T16:11:22.617Z,16.20
2023-04-30T16:13:51.431Z,16.00
2023-04-30T16:16:18.720Z,16.20
2023-04-30T16:18:45.786Z,16.00
2023-04-30T16:21:12.843Z,16.50
2023-04-30T16:23:40.653Z,16.00
2023-04-30T16:26:07.866Z,16.10
2023-04-30T16:28:37.969Z,16.10
2023-04-30T16:31:05.389Z,16.30
2023-04-30T16:33:32.513Z,16.40
2023-04-30T16:35:59.772Z,16.50
2023-04-30T16:38:26.831Z,16.30
2023-04-30T16:40:54.410Z,16.30
2023-04-30T16:43:21.454Z,16.20
2023-04-30T16:45:49.994Z,16.40
2023-04-30T16:48:17.635Z,16.60
2023-04-30T16:50:44.835Z,16.00
2023-04-30T16:53:11.899Z,16.30
2023-04-30T16:55:39.070Z,16.10
2023-04-30T16:58:06.337Z,16.20
2023-04-30T17:00:33.619Z,15.90
2023-04-30T17:03:00.712Z,16.00
2023-04-30T17:05:27.825Z,16.00
2023-04-30T17:07:55.128Z,16.10
2023-04-30T17:10:22.415Z,15.90
2023-04-30T17:12:49.448Z,16.00
2023-04-30T17:15:18.393Z,15.90
2023-04-30T17:17:45.680Z,16.00
2023-04-30T17:20:12.665Z,16.00
2023-04-30T17:22:40.196Z,16.00
2023-04-30T17:25:08.138Z,15.90
2023-04-30T17:27:35.322Z,15.90
2023-04-30T17:30:04.772Z,16.00
2023-04-30T17:32:31.880Z,16.10
2023-04-30T17:35:00.150Z,15.90
2023-04-30T17:37:27.184Z,16.00
2023-04-30T17:39:54.439Z,16.10
2023-04-30T17:42:21.712Z,15.90
2023-04-30T17:44:49.073Z,15.90
2023-04-30T17:47:16.360Z,15.90
2023-04-30T17:49:43.420Z,15.80
2023-04-30T17:52:10.504Z,15.70
2023-04-30T17:54:37.501Z,15.90
2023-04-30T17:57:04.621Z,15.80
2023-04-30T17:59:32.012Z,15.80
2023-04-30T18:01:59.688Z,15.90
2023-04-30T18:04:26.914Z,15.90
2023-04-30T18:06:54.030Z,15.60
2023-04-30T18:09:20.976Z,15.60
2023-04-30T18:11:48.070Z,15.50
2023-04-30T18:14:15.127Z,15.50
2023-04-30T18:16:42.323Z,15.50
2023-04-30T18:19:09.700Z,15.40
2023-04-30T18:21:36.668Z,15.50
2023-04-30T18:24:04.003Z,15.40
2023-04-30T18:26:31.070Z,15.20
2023-04-30T18:28:58.324Z,15.30
2023-04-30T18:31:26.044Z,15.70
2023-04-30T18:33:53.138Z,15.30
2023-04-30T18:36:20.177Z,15.30
2023-04-30T18:38:47.115Z,15.10
2023-04-30T18:41:14.080Z,15.30
2023-04-30T18:43:42.742Z,15.30
2023-04-30T18:46:10.011Z,15.10
2023-04-30T18:48:37.058Z,15.10
2023-04-30T18:51:04.716Z,15.10
2023-04-30T18:53:31.793Z,15.10
2023-04-30T18:55:58.757Z,15.00
2023-04-30T18:58:25.750Z,15.10
2023-04-30T19:00:56.653Z,15.10
2023-04-30T19:03:24.783Z,15.00
2023-04-30T19:05:57.545Z,15.00
2023-04-30T19:08:25.118Z,15.10
2023-04-30T19:10:53.265Z,14.90
2023-04-30T19:13:23.756Z,15.00
2023-04-30T19:15:53.081Z,14.80
2023-04-30T19:18:21.235Z,14.80
2023-04-30T19:21:00.323Z,15.00
2023-04-30T19:23:30.465Z,15.00
2023-04-30T19:25:59.188Z,14.60
2023-04-30T19:28:26.297Z,14.70
2023-04-30T19:30:55.341Z,14.70
2023-04-30T19:33:23.738Z,14.90
2023-04-30T19:35:55.135Z,14.80
2023-04-30T19:38:22.324Z,14.80
2023-04-30T19:40:54.362Z,14.50
2023-04-30T19:43:22.788Z,14.80
2023-04-30T19:45:55.750Z,14.60
2023-04-30T19:48:24.439Z,14.60
2023-04-30T19:50:55.772Z,14.50
2023-04-30T19:53:25.652Z,14.70
2023-04-30T19:55:53.183Z,14.70
2023-04-30T19:58:20.881Z,14.70
2023-04-30T20:00:48.348Z,14.10
2023-04-30T20:03:17.503Z,14.60
2023-04-30T20:05:45.021Z,14.20
2023-04-30T20:08:12.452Z,14.50
2023-04-30T20:10:40.990Z,14.60
2023-04-30T20:13:09.599Z,13.70
2023-04-30T20:15:36.881Z,14.30
2023-04-30T20:18:05.738Z,14.30
2023-04-30T20:20:32.880Z,14.10
2023-04-30T20:23:17.705Z,14.20
2023-04-30T20:25:46.257Z,14.30
2023-04-30T20:28:14.929Z,14.20
2023-04-30T20:30:43.022Z,14.30
2023-04-30T20:33:12.195Z,13.10
2023-04-30T20:35:47.492Z,14.50
2023-04-30T20:38:19.666Z,14.30
2023-04-30T20:43:14.670Z,14.70
2023-04-30T20:45:44.732Z,14.40
2023-04-30T20:48:15.252Z,14.10
2023-04-30T20:50:42.408Z,14.20
2023-04-30T20:53:11.267Z,14.00
2023-04-30T20:55:38.566Z,13.70
2023-04-30T20:58:05.956Z,14.00
2023-04-30T21:00:32.980Z,14.00
2023-04-30T21:02:59.981Z,14.10
2023-04-30T21:05:28.524Z,13.90
2023-04-30T21:07:55.481Z,14.10
2023-04-30T21:12:49.913Z,12.50
2023-04-30T21:15:17.391Z,13.80
2023-04-30T21:17:44.380Z,13.90
2023-04-30T21:20:11.982Z,13.90
2023-04-30T21:22:39.906Z,13.80
2023-04-30T21:25:07.570Z,15.10
2023-04-30T21:27:35.202Z,14.30
2023-04-30T21:30:02.138Z,13.80
2023-04-30T21:32:29.312Z,13.90
2023-04-30T21:34:56.538Z,13.60
2023-04-30T21:37:23.577Z,13.70
2023-04-30T21:39:56.515Z,13.30
2023-04-30T21:42:23.675Z,13.60
2023-04-30T21:44:50.634Z,14.30
2023-04-30T21:47:17.546Z,12.30
2023-04-30T21:49:44.555Z,14.10
2023-04-30T21:52:11.668Z,13.50
2023-04-30T21:54:38.819Z,13.40
2023-04-30T21:57:05.966Z,13.60
2023-04-30T21:59:35.514Z,13.30
2023-04-30T22:02:07.210Z,13.40
2023-04-30T22:04:40.194Z,13.40
2023-04-30T22:07:07.238Z,13.50
2023-04-30T22:09:34.313Z,13.40
2023-04-30T22:12:04.446Z,13.30
2023-04-30T22:14:31.435Z,13.40
2023-04-30T22:16:58.429Z,13.20
2023-04-30T22:19:25.689Z,14.40
2023-04-30T22:21:53.009Z,13.40
2023-04-30T22:24:20.089Z,13.30
2023-04-30T22:26:47.176Z,13.20
2023-04-30T22:29:14.122Z,13.70
2023-04-30T22:31:41.454Z,13.00
2023-04-30T22:34:09.268Z,13.20
2023-04-30T22:36:36.231Z,13.10
2023-04-30T22:39:03.763Z,13.00
2023-04-30T22:41:31.053Z,13.10
2023-04-30T22:43:58.212Z,13.40
2023-04-30T22:46:25.296Z,13.10
2023-04-30T22:48:52.627Z,13.40
2023-04-30T22:51:19.711Z,13.10
2023-04-30T22:53:46.803Z,13.00
2023-04-30T22:56:13.805Z,13.00
2023-04-30T22:58:41.039Z,12.80
2023-04-30T23:01:08.397Z,13.00
2023-04-30T23:03:36.107Z,13.70
2023-04-30T23:06:03.212Z,13.00
2023-04-30T23:10:58.047Z,13.10
2023-04-30T23:13:24.991Z,12.90
2023-04-30T23:15:51.924Z,12.90
2023-04-30T23:18:19.569Z,13.50
2023-04-30T23:20:47.536Z,12.10
2023-04-30T23:23:14.509Z,12.80
2023-04-30T23:25:41.650Z,13.20
2023-04-30T23:28:08.760Z,12.90
2023-04-30T23:30:39.151Z,12.50
2023-04-30T23:33:06.460Z,12.80
2023-04-30T23:35:33.523Z,12.70
2023-04-30T23:38:00.566Z,12.50
2023-04-30T23:40:27.630Z,12.80
2023-04-30T23:42:54.575Z,12.70
2023-04-30T23:45:22.425Z,12.50
2023-04-30T23:47:49.968Z,13.90
2023-04-30T23:50:17.222Z,12.70
2023-04-30T23:52:44.337Z,12.30
2023-04-30T23:55:11.660Z,12.50
2023-04-30T23:57:38.614Z,12.40
